済州 の空港の天気 - METARとTAF

済州国際空港 ( RKPC / CJU ) - 韓国 済州
飛行場実況気象(Metar)
観測時間05/28 12:00 KST (05/28 03:00 UTC)
風向・風速東 5m/s
視程10km以上
天気現象
少しの雲 雲底高度 1220m
全天の4割程度の雲 雲底高度 3660m
全天の8割程度の雲 雲底高度 6100m
気温27℃
湿度70%
気圧1013hPa
METARRKPC 280300Z 08010KT 9999 FEW040 SCT120 BKN200 27/21 Q1013 WS R07 R25 NOSIG
過去の天気等 Google飛行場航空写真 Wunderground天気予報

過去48時間のMETAR

飛行場予報(TAF)
発表時間: 5/28 08:00 KST (5/27 23:00 UTC)
予報対象時間: 28日9時 KST ~ 29日15時 KST
風向・風速北北東 3m/s
視程10km以上
全天の4割程度の雲 雲底高度 910m
全天の8割程度の雲 雲底高度 3660m
28日20時 KST ~ 28日21時 KST に徐々に
風向・風速南 3m/s
29日7時 KST ~ 29日8時 KST に徐々に
風向・風速西南西 4m/s
TAF RKPC 272300Z 2800/2906 03006KT 9999 SCT030 BKN120 TX26/2805Z TN21/2818Z TX25/2905Z
BECMG 2811/2812 19006KT
BECMG 2822/2823 25008KT